createdAt,value
2022-11-23T00:01:19.505Z,95.60
2022-11-23T00:03:47.672Z,95.58
2022-11-23T00:06:15.107Z,95.93
2022-11-23T00:08:41.700Z,95.63
2022-11-23T00:11:08.815Z,95.76
2022-11-23T00:13:35.522Z,96.14
2022-11-23T00:16:05.867Z,96.10
2022-11-23T00:18:32.496Z,96.09
2022-11-23T00:20:59.152Z,96.09
2022-11-23T00:23:25.720Z,96.17
2022-11-23T00:25:52.215Z,95.70
2022-11-23T00:28:21.232Z,96.25
2022-11-23T00:30:50.818Z,96.13
2022-11-23T00:33:17.892Z,96.00
2022-11-23T00:35:44.965Z,96.20
2022-11-23T00:38:13.838Z,96.22
2022-11-23T00:40:40.416Z,96.23
2022-11-23T00:43:06.948Z,96.34
2022-11-23T00:45:33.482Z,95.93
2022-11-23T00:48:00.041Z,96.49
2022-11-23T00:50:26.634Z,96.50
2022-11-23T00:52:55.401Z,96.14
2022-11-23T00:55:21.969Z,96.22
2022-11-23T00:57:48.562Z,96.43
2022-11-23T01:00:16.566Z,96.44
2022-11-23T01:02:43.131Z,96.63
2022-11-23T01:05:10.108Z,96.30
2022-11-23T01:07:36.786Z,96.50
2022-11-23T01:10:03.633Z,96.34
2022-11-23T01:12:30.220Z,96.76
2022-11-23T01:14:56.900Z,96.29
2022-11-23T01:17:23.495Z,96.37
2022-11-23T01:19:50.252Z,96.03
2022-11-23T01:22:20.304Z,96.52
2022-11-23T01:24:49.157Z,96.50
2022-11-23T01:27:15.817Z,96.23
2022-11-23T01:29:42.347Z,96.52
2022-11-23T01:32:08.834Z,96.38
2022-11-23T01:34:37.717Z,96.75
2022-11-23T01:37:06.450Z,97.01
2022-11-23T01:39:35.211Z,96.68
2022-11-23T01:42:01.800Z,96.63
2022-11-23T01:44:33.997Z,96.37
2022-11-23T01:47:05.900Z,96.42
2022-11-23T01:49:39.632Z,96.48
2022-11-23T01:52:19.952Z,96.33
2022-11-23T01:54:55.834Z,96.00
2022-11-23T01:57:32.684Z,95.79
2022-11-23T01:59:59.198Z,95.92
2022-11-23T02:02:29.051Z,95.75
2022-11-23T02:05:00.673Z,96.22
2022-11-23T02:07:29.151Z,96.01
2022-11-23T02:09:55.992Z,95.64
2022-11-23T02:12:25.722Z,96.03
2022-11-23T02:14:52.378Z,96.05
2022-11-23T02:17:19.354Z,96.05
2022-11-23T02:19:57.137Z,96.08
2022-11-23T02:22:32.482Z,96.37
2022-11-23T02:25:02.445Z,96.15
2022-11-23T02:27:29.540Z,96.60
2022-11-23T02:29:58.907Z,96.05
2022-11-23T02:32:25.756Z,95.94
2022-11-23T02:34:54.563Z,95.91
2022-11-23T02:37:21.143Z,95.95
2022-11-23T02:39:55.608Z,96.03
2022-11-23T02:42:24.052Z,95.76
2022-11-23T02:45:19.046Z,95.53
2022-11-23T02:47:45.602Z,96.02
2022-11-23T02:50:12.167Z,95.97
2022-11-23T02:52:41.229Z,95.63
2022-11-23T02:55:08.195Z,95.58
2022-11-23T02:57:35.444Z,95.46
2022-11-23T03:00:02.085Z,95.88
2022-11-23T03:02:28.780Z,95.62
2022-11-23T03:04:55.444Z,95.56
2022-11-23T03:07:22.108Z,95.26
2022-11-23T03:09:48.669Z,95.64
2022-11-23T03:12:16.418Z,95.55
2022-11-23T03:14:42.968Z,95.39
2022-11-23T03:17:09.473Z,95.15
2022-11-23T03:19:36.046Z,95.03
2022-11-23T03:22:03.567Z,95.27
2022-11-23T03:24:30.152Z,95.52
2022-11-23T03:26:56.786Z,95.48
2022-11-23T03:29:26.408Z,95.00
2022-11-23T03:31:54.182Z,95.01
2022-11-23T03:34:23.825Z,95.09
2022-11-23T03:36:50.399Z,95.15
2022-11-23T03:39:16.970Z,95.40
2022-11-23T03:41:45.813Z,95.47
2022-11-23T03:44:14.554Z,95.39
2022-11-23T03:46:41.132Z,95.48
2022-11-23T03:49:07.658Z,95.55
2022-11-23T03:51:34.227Z,95.01
2022-11-23T03:54:03.175Z,95.35
2022-11-23T03:56:29.753Z,95.35
2022-11-23T03:58:58.743Z,95.49
2022-11-23T04:01:25.956Z,95.58
2022-11-23T04:03:52.657Z,95.56
2022-11-23T04:06:19.300Z,95.78
2022-11-23T04:08:45.996Z,95.63
2022-11-23T04:11:14.968Z,95.60
2022-11-23T04:13:41.722Z,95.66
2022-11-23T04:16:08.323Z,95.71
2022-11-23T04:18:34.934Z,95.37
2022-11-23T04:21:01.725Z,95.21
2022-11-23T04:23:28.280Z,95.01
2022-11-23T04:25:54.872Z,95.06
2022-11-23T04:28:21.459Z,94.74
2022-11-23T04:30:48.119Z,95.02
2022-11-23T04:33:14.655Z,95.33
2022-11-23T04:35:41.190Z,94.80
2022-11-23T04:38:07.828Z,94.82
2022-11-23T04:40:37.086Z,94.95
2022-11-23T04:43:04.018Z,94.94
2022-11-23T04:45:30.585Z,95.01
2022-11-23T04:47:57.215Z,94.74
2022-11-23T04:50:26.017Z,95.04
2022-11-23T04:52:52.922Z,94.74
2022-11-23T04:55:22.069Z,94.88
2022-11-23T04:57:48.552Z,94.54
2022-11-23T05:00:15.873Z,94.48
2022-11-23T05:02:42.530Z,94.56
2022-11-23T05:05:09.307Z,94.76
2022-11-23T05:07:38.169Z,94.37
2022-11-23T05:10:05.333Z,94.77
2022-11-23T05:12:34.261Z,94.75
2022-11-23T05:15:04.305Z,94.47
2022-11-23T05:17:33.692Z,94.97
2022-11-23T05:20:00.277Z,94.49
2022-11-23T05:22:28.888Z,94.18
2022-11-23T05:24:55.691Z,94.06
2022-11-23T05:27:22.277Z,94.11
2022-11-23T05:29:48.839Z,94.42
2022-11-23T05:32:15.496Z,94.48
2022-11-23T05:34:48.015Z,94.12
2022-11-23T05:37:16.775Z,94.47
2022-11-23T05:39:43.401Z,93.95
2022-11-23T05:42:10.484Z,94.23
2022-11-23T05:44:37.053Z,94.26
2022-11-23T05:47:05.656Z,94.22
2022-11-23T05:49:32.525Z,93.87
2022-11-23T05:51:59.217Z,93.70
2022-11-23T05:54:26.742Z,94.03
2022-11-23T05:56:53.292Z,93.38
2022-11-23T05:59:19.810Z,93.99
2022-11-23T06:01:46.352Z,93.71
2022-11-23T06:04:13.465Z,93.48
2022-11-23T06:06:40.114Z,93.73
2022-11-23T06:09:06.649Z,93.34
2022-11-23T06:11:33.291Z,93.09
2022-11-23T06:13:59.857Z,92.94
2022-11-23T06:16:26.476Z,93.57
2022-11-23T06:18:55.471Z,93.54
2022-11-23T06:21:22.065Z,93.23
2022-11-23T06:23:48.656Z,93.37
2022-11-23T06:26:15.476Z,92.88
2022-11-23T06:28:42.029Z,93.14
2022-11-23T06:31:09.956Z,93.52
2022-11-23T06:33:36.575Z,93.15
2022-11-23T06:36:03.952Z,93.13
2022-11-23T06:38:30.562Z,92.96
2022-11-23T06:41:01.015Z,92.93
2022-11-23T06:43:28.665Z,93.33
2022-11-23T06:45:55.954Z,93.20
2022-11-23T06:48:22.841Z,93.10
2022-11-23T06:50:49.476Z,93.01
2022-11-23T06:53:18.239Z,93.47
2022-11-23T06:55:49.693Z,93.17
2022-11-23T06:58:16.546Z,92.98
2022-11-23T07:00:43.072Z,92.82
2022-11-23T07:03:21.297Z,92.86
2022-11-23T07:05:48.038Z,92.51
2022-11-23T07:08:20.320Z,92.89
2022-11-23T07:11:03.888Z,92.63
2022-11-23T07:13:34.813Z,92.96
2022-11-23T07:16:06.791Z,93.14
2022-11-23T07:18:46.667Z,93.03
2022-11-23T07:21:15.683Z,92.73
2022-11-23T07:23:42.231Z,93.19
2022-11-23T07:26:09.355Z,93.17
2022-11-23T07:28:36.039Z,92.58
2022-11-23T07:31:02.624Z,93.06
2022-11-23T07:33:31.315Z,92.88
2022-11-23T07:36:02.594Z,92.34
2022-11-23T07:38:32.440Z,92.54
2022-11-23T07:41:01.115Z,92.03
2022-11-23T07:43:27.696Z,92.16
2022-11-23T07:45:56.650Z,92.17
2022-11-23T07:48:23.555Z,92.04
2022-11-23T07:50:53.920Z,91.89
2022-11-23T07:53:21.101Z,91.09
2022-11-23T07:55:47.745Z,91.18
2022-11-23T07:58:14.434Z,90.70
2022-11-23T08:00:41.163Z,90.96
2022-11-23T08:03:27.421Z,91.07
2022-11-23T08:05:54.653Z,91.77
2022-11-23T08:08:21.246Z,91.84
2022-11-23T08:10:52.892Z,91.88
2022-11-23T08:13:21.447Z,91.71
2022-11-23T08:15:55.037Z,91.80
2022-11-23T08:18:23.593Z,91.66
2022-11-23T08:20:57.896Z,91.54
2022-11-23T08:23:27.926Z,91.78
2022-11-23T08:25:56.489Z,91.41
2022-11-23T08:28:26.955Z,91.62
2022-11-23T08:31:06.369Z,91.47
2022-11-23T08:33:38.984Z,91.78
2022-11-23T08:36:12.345Z,91.43
2022-11-23T08:38:57.672Z,91.20
2022-11-23T08:41:24.573Z,91.09
2022-11-23T08:43:53.147Z,91.41
2022-11-23T08:46:41.544Z,91.10
2022-11-23T08:49:09.381Z,91.23
2022-11-23T08:51:42.484Z,91.36
2022-11-23T08:57:06.106Z,90.67
2022-11-23T08:59:36.852Z,90.72
2022-11-23T09:02:08.896Z,90.83
2022-11-23T09:04:39.908Z,90.44
2022-11-23T09:07:09.933Z,90.78
2022-11-23T09:09:37.201Z,90.46
2022-11-23T09:12:09.938Z,90.47
2022-11-23T09:14:37.263Z,90.04
2022-11-23T09:17:11.678Z,90.00
2022-11-23T09:19:43.233Z,88.56
2022-11-23T09:22:13.281Z,88.09
2022-11-23T09:24:39.848Z,87.07
2022-11-23T09:27:06.575Z,86.88
2022-11-23T09:29:37.647Z,86.35
2022-11-23T09:32:04.323Z,86.44
2022-11-23T09:34:31.234Z,85.71
2022-11-23T09:36:58.263Z,85.80
2022-11-23T09:39:25.529Z,85.93
2022-11-23T09:41:52.100Z,85.52
2022-11-23T09:44:36.755Z,85.54
2022-11-23T09:47:40.715Z,85.35
2022-11-23T09:50:07.184Z,85.53
2022-11-23T09:52:36.648Z,85.23
2022-11-23T09:55:33.992Z,85.10
2022-11-23T09:58:04.852Z,85.30
2022-11-23T10:00:43.292Z,84.91
2022-11-23T10:03:16.093Z,84.83
2022-11-23T10:05:48.049Z,84.93
2022-11-23T10:08:33.305Z,84.62
2022-11-23T10:11:35.368Z,84.62
2022-11-23T10:14:13.701Z,84.77
2022-11-23T10:17:17.577Z,84.72
2022-11-23T10:20:13.932Z,84.31
2022-11-23T10:22:59.805Z,84.37
2022-11-23T10:25:37.603Z,83.98
2022-11-23T10:28:19.032Z,83.44
2022-11-23T10:30:53.858Z,83.36
2022-11-23T10:33:45.425Z,83.32
2022-11-23T10:36:17.240Z,83.26
2022-11-23T10:38:45.265Z,83.04
2022-11-23T10:41:16.996Z,82.92
2022-11-23T10:44:12.518Z,82.83
2022-11-23T10:46:40.600Z,82.42
2022-11-23T10:49:30.260Z,82.26
2022-11-23T10:52:05.547Z,81.97
2022-11-23T10:54:40.400Z,81.74
2022-11-23T10:57:33.231Z,82.00
2022-11-23T11:00:22.099Z,81.68
2022-11-23T11:02:55.504Z,81.30
2022-11-23T11:06:08.248Z,80.80
2022-11-23T11:08:21.110Z,80.29
2022-11-23T11:11:01.417Z,79.70
2022-11-23T11:13:31.730Z,79.22
2022-11-23T11:16:06.985Z,79.13
2022-11-23T11:18:36.398Z,78.67
2022-11-23T11:21:08.049Z,78.43
2022-11-23T11:23:40.130Z,78.67
2022-11-23T11:26:18.468Z,78.50
2022-11-23T11:28:53.023Z,78.58
2022-11-23T11:31:34.868Z,78.25
2022-11-23T11:34:25.381Z,78.39
2022-11-23T11:37:09.921Z,78.21
2022-11-23T11:39:51.235Z,78.22
2022-11-23T11:42:33.476Z,78.00
2022-11-23T11:45:03.216Z,78.17
2022-11-23T11:47:47.185Z,78.21
2022-11-23T11:50:41.981Z,78.50
2022-11-23T11:53:15.246Z,77.92
2022-11-23T11:55:51.152Z,77.98
2022-11-23T11:58:18.395Z,77.92
2022-11-23T12:00:48.841Z,77.59
2022-11-23T12:03:33.473Z,77.73
2022-11-23T12:06:11.571Z,77.72
2022-11-23T12:08:51.806Z,77.82
2022-11-23T12:11:19.680Z,73.15
2022-11-23T12:13:47.030Z,75.13
2022-11-23T12:16:16.581Z,75.36
2022-11-23T12:18:52.141Z,75.62
2022-11-23T12:21:18.709Z,75.74
2022-11-23T12:23:55.329Z,75.83
2022-11-23T12:26:42.461Z,71.92
2022-11-23T12:29:34.011Z,73.54
2022-11-23T12:32:06.937Z,74.19
2022-11-23T12:34:42.768Z,74.36
2022-11-23T12:37:21.461Z,74.50
2022-11-23T12:39:56.418Z,74.68
2022-11-23T12:42:54.961Z,74.70
2022-11-23T12:45:56.417Z,75.20
2022-11-23T12:48:29.051Z,75.11
2022-11-23T12:51:00.709Z,75.13
2022-11-23T12:53:35.927Z,75.46
2022-11-23T12:56:43.505Z,75.42
2022-11-23T12:59:15.221Z,75.51
2022-11-23T13:01:49.787Z,75.36
2022-11-23T13:04:54.016Z,75.29
2022-11-23T13:07:53.304Z,74.79
2022-11-23T13:10:27.833Z,74.12
2022-11-23T13:13:15.863Z,70.44
2022-11-23T13:16:18.879Z,72.00
2022-11-23T13:19:17.530Z,72.78
2022-11-23T13:21:46.664Z,72.73
2022-11-23T13:24:43.033Z,73.00
2022-11-23T13:27:15.450Z,73.15
2022-11-23T13:29:51.290Z,73.24
2022-11-23T13:32:39.468Z,73.59
2022-11-23T13:35:21.349Z,73.80
2022-11-23T13:37:57.566Z,73.79
2022-11-23T13:40:32.937Z,73.59
2022-11-23T13:43:13.660Z,74.29
2022-11-23T13:45:43.301Z,74.02
2022-11-23T13:48:13.324Z,74.30
2022-11-23T13:50:58.740Z,74.70
2022-11-23T13:53:32.383Z,74.97
2022-11-23T13:56:35.439Z,75.56
2022-11-23T13:59:23.273Z,76.02
2022-11-23T14:02:06.664Z,76.90
2022-11-23T14:04:41.397Z,77.52
2022-11-23T14:07:19.567Z,77.78
2022-11-23T14:09:55.574Z,78.11
2022-11-23T14:12:36.660Z,78.38
2022-11-23T14:15:06.318Z,78.81
2022-11-23T14:18:00.920Z,78.87
2022-11-23T14:20:57.782Z,79.13
2022-11-23T14:23:46.432Z,79.60
2022-11-23T14:26:28.371Z,80.70
2022-11-23T14:29:30.402Z,80.90
2022-11-23T14:32:08.584Z,81.08
2022-11-23T14:34:38.294Z,81.12
2022-11-23T14:37:27.208Z,81.41
2022-11-23T14:39:59.780Z,81.61
2022-11-23T14:42:29.511Z,81.66
2022-11-23T14:45:01.705Z,82.04
2022-11-23T14:47:32.203Z,82.01
2022-11-23T14:50:01.151Z,82.11
2022-11-23T14:52:31.518Z,82.39
2022-11-23T14:55:01.509Z,82.54
2022-11-23T14:57:42.303Z,83.90
2022-11-23T15:00:29.789Z,83.52
2022-11-23T15:03:20.764Z,83.74
2022-11-23T15:06:03.894Z,83.87
2022-11-23T15:08:37.817Z,84.22
2022-11-23T15:11:23.788Z,84.00
2022-11-23T15:13:52.482Z,84.53
2022-11-23T15:16:20.682Z,84.25
2022-11-23T15:18:50.672Z,84.23
2022-11-23T15:21:26.587Z,84.83
2022-11-23T15:23:57.424Z,85.29
2022-11-23T15:26:46.928Z,85.85
2022-11-23T15:29:56.049Z,85.11
2022-11-23T15:32:33.786Z,85.62
2022-11-23T15:35:12.590Z,85.61
2022-11-23T15:37:50.035Z,85.59
2022-11-23T15:40:18.835Z,86.15
2022-11-23T15:42:48.384Z,85.71
2022-11-23T15:45:59.308Z,85.82
2022-11-23T15:48:35.369Z,86.02
2022-11-23T15:51:06.994Z,86.06
2022-11-23T15:53:49.615Z,86.00
2022-11-23T15:56:34.518Z,86.23
2022-11-23T15:59:04.254Z,86.07
2022-11-23T16:01:31.035Z,86.18
2022-11-23T16:04:04.595Z,86.31
2022-11-23T16:06:42.179Z,86.45
2022-11-23T16:09:54.331Z,86.20
2022-11-23T16:12:29.849Z,86.44
2022-11-23T16:15:27.577Z,86.45
2022-11-23T16:17:54.245Z,86.14
2022-11-23T16:20:27.095Z,86.39
2022-11-23T16:22:54.641Z,86.25
2022-11-23T16:25:31.640Z,86.55
2022-11-23T16:28:03.966Z,86.52
2022-11-23T16:30:44.648Z,86.64
2022-11-23T16:33:17.051Z,86.81
2022-11-23T16:35:46.310Z,86.43
2022-11-23T16:38:13.205Z,86.55
2022-11-23T16:40:40.488Z,86.57
2022-11-23T16:43:07.322Z,86.91
2022-11-23T16:45:36.260Z,87.03
2022-11-23T16:48:03.445Z,86.79
2022-11-23T16:50:34.613Z,86.99
2022-11-23T16:53:10.830Z,86.66
2022-11-23T16:55:43.608Z,87.17
2022-11-23T16:58:15.645Z,87.14
2022-11-23T17:00:42.756Z,87.36
2022-11-23T17:03:19.132Z,87.59
2022-11-23T17:05:49.068Z,87.28
2022-11-23T17:08:22.989Z,87.39
2022-11-23T17:10:50.916Z,87.46
2022-11-23T17:13:27.732Z,87.42
2022-11-23T17:15:55.233Z,87.55
2022-11-23T17:18:22.577Z,87.51
2022-11-23T17:20:49.501Z,87.71
2022-11-23T17:23:16.038Z,87.56
2022-11-23T17:25:44.879Z,87.88
2022-11-23T17:28:22.764Z,87.93
2022-11-23T17:30:49.636Z,87.54
2022-11-23T17:33:16.340Z,88.01
2022-11-23T17:35:45.506Z,88.59
2022-11-23T17:38:16.772Z,88.75
2022-11-23T17:40:43.408Z,88.58
2022-11-23T17:43:16.202Z,88.86
2022-11-23T17:45:44.620Z,88.73
2022-11-23T17:48:15.927Z,88.50
2022-11-23T17:50:44.817Z,88.49
2022-11-23T17:53:13.803Z,89.04
2022-11-23T17:55:40.944Z,89.13
2022-11-23T17:58:08.062Z,88.78
2022-11-23T18:00:36.488Z,89.07
2022-11-23T18:03:03.505Z,89.30
2022-11-23T18:05:30.495Z,89.77
2022-11-23T18:07:57.185Z,89.86
2022-11-23T18:10:24.381Z,90.21
2022-11-23T18:12:51.113Z,89.66
2022-11-23T18:15:17.985Z,89.95
2022-11-23T18:17:47.286Z,89.73
2022-11-23T18:20:13.975Z,90.21
2022-11-23T18:22:42.921Z,90.08
2022-11-23T18:25:09.742Z,90.42
2022-11-23T18:27:36.337Z,90.36
2022-11-23T18:30:03.053Z,90.54
2022-11-23T18:32:34.537Z,90.70
2022-11-23T18:35:01.099Z,90.73
2022-11-23T18:37:30.581Z,91.22
2022-11-23T18:39:59.619Z,90.89
2022-11-23T18:42:26.328Z,90.99
2022-11-23T18:44:52.821Z,91.40
2022-11-23T18:47:19.566Z,91.61
2022-11-23T18:49:46.086Z,91.63
2022-11-23T18:52:13.893Z,91.63
2022-11-23T18:54:40.569Z,91.98
2022-11-23T18:57:07.918Z,91.44
2022-11-23T18:59:56.757Z,91.88
2022-11-23T19:02:21.026Z,92.05
2022-11-23T19:04:47.871Z,92.18
2022-11-23T19:07:14.869Z,91.93
2022-11-23T19:09:41.552Z,92.13
2022-11-23T19:12:10.502Z,92.40
2022-11-23T19:14:37.133Z,92.41
2022-11-23T19:17:06.024Z,92.35
2022-11-23T19:19:32.731Z,92.49
2022-11-23T19:22:01.744Z,92.25
2022-11-23T19:24:31.014Z,92.43
2022-11-23T19:26:59.964Z,92.57
2022-11-23T19:29:26.989Z,92.20
2022-11-23T19:31:55.111Z,92.59
2022-11-23T19:34:24.084Z,92.65
2022-11-23T19:36:50.819Z,92.61
2022-11-23T19:39:17.429Z,92.68
2022-11-23T19:41:44.079Z,92.37
2022-11-23T19:44:10.664Z,92.40
2022-11-23T19:46:37.428Z,92.29
2022-11-23T19:49:04.876Z,92.27
2022-11-23T19:51:31.638Z,92.36
2022-11-23T19:53:58.413Z,92.54
2022-11-23T19:56:28.918Z,92.72
2022-11-23T19:58:59.904Z,92.95
2022-11-23T20:01:34.344Z,93.04
2022-11-23T20:04:08.775Z,93.03
2022-11-23T20:06:44.141Z,92.97
2022-11-23T20:09:21.087Z,92.91
2022-11-23T20:11:50.955Z,93.36
2022-11-23T20:14:18.234Z,93.32
2022-11-23T20:16:44.798Z,93.05
2022-11-23T20:19:11.736Z,93.18
2022-11-23T20:21:38.426Z,93.29
2022-11-23T20:24:11.607Z,93.22
2022-11-23T20:26:38.302Z,93.43
2022-11-23T20:29:06.087Z,93.11
2022-11-23T20:31:33.531Z,93.16
2022-11-23T20:34:00.915Z,93.24
2022-11-23T20:36:30.179Z,92.88
2022-11-23T20:38:57.244Z,93.23
2022-11-23T20:41:28.707Z,93.41
2022-11-23T20:43:57.903Z,93.78
2022-11-23T20:46:53.743Z,93.94
2022-11-23T20:49:13.273Z,93.69
2022-11-23T20:51:39.953Z,93.78
2022-11-23T20:54:06.498Z,93.48
2022-11-23T20:56:33.228Z,93.93
2022-11-23T20:59:00.376Z,93.87
2022-11-23T21:01:28.024Z,93.78
2022-11-23T21:03:59.182Z,93.72
2022-11-23T21:06:28.808Z,94.05
2022-11-23T21:08:57.770Z,94.21
2022-11-23T21:11:47.508Z,94.03
2022-11-23T21:14:18.017Z,94.14
2022-11-23T21:16:55.602Z,94.23
2022-11-23T21:19:24.717Z,94.24
2022-11-23T21:21:51.527Z,94.37
2022-11-23T21:24:21.395Z,94.26
2022-11-23T21:26:48.477Z,94.17
2022-11-23T21:29:18.680Z,94.24
2022-11-23T21:31:49.112Z,94.36
2022-11-23T21:34:23.611Z,94.41
2022-11-23T21:36:53.441Z,94.87
2022-11-23T21:39:20.846Z,94.54
2022-11-23T21:41:50.074Z,94.28
2022-11-23T21:44:17.434Z,94.84
2022-11-23T21:46:44.070Z,94.85
2022-11-23T21:49:11.154Z,94.67
2022-11-23T21:51:42.596Z,94.89
2022-11-23T21:54:13.860Z,94.44
2022-11-23T21:56:43.328Z,94.39
2022-11-23T21:59:10.240Z,94.65
2022-11-23T22:01:37.808Z,94.65
2022-11-23T22:04:08.883Z,94.79
2022-11-23T22:06:36.464Z,95.09
2022-11-23T22:09:05.003Z,94.96
2022-11-23T22:11:34.049Z,94.97
2022-11-23T22:14:04.723Z,95.30
2022-11-23T22:16:36.316Z,95.17
2022-11-23T22:19:03.878Z,95.10
2022-11-23T22:21:35.692Z,95.32
2022-11-23T22:24:03.494Z,94.97
2022-11-23T22:26:30.128Z,94.88
2022-11-23T22:28:57.780Z,94.74
2022-11-23T22:31:30.228Z,95.00
2022-11-23T22:33:56.787Z,95.21
2022-11-23T22:36:24.405Z,95.18
2022-11-23T22:39:01.612Z,95.20
2022-11-23T22:41:29.997Z,94.86
2022-11-23T22:43:56.952Z,94.99
2022-11-23T22:46:27.384Z,94.67
2022-11-23T22:48:59.408Z,95.38
2022-11-23T22:51:28.901Z,95.30
2022-11-23T22:53:57.518Z,95.13
2022-11-23T22:56:27.678Z,95.14
2022-11-23T22:58:57.351Z,94.86
2022-11-23T23:01:26.813Z,95.10
2022-11-23T23:03:58.150Z,95.22
2022-11-23T23:06:26.999Z,95.46
2022-11-23T23:08:58.194Z,95.12
2022-11-23T23:11:26.624Z,95.23
2022-11-23T23:13:53.695Z,95.35
2022-11-23T23:16:20.803Z,95.43
2022-11-23T23:18:47.562Z,95.32
2022-11-23T23:21:21.633Z,95.21
2022-11-23T23:23:50.062Z,95.17
2022-11-23T23:26:19.185Z,95.23
2022-11-23T23:28:46.237Z,95.50
2022-11-23T23:31:16.187Z,95.30
2022-11-23T23:33:44.014Z,95.40
2022-11-23T23:36:13.411Z,95.38
2022-11-23T23:38:40.553Z,95.26
2022-11-23T23:41:11.385Z,95.44
2022-11-23T23:43:40.734Z,95.18
2022-11-23T23:46:10.619Z,95.58
2022-11-23T23:48:38.836Z,95.44
2022-11-23T23:51:11.087Z,95.46
2022-11-23T23:53:37.694Z,95.25
2022-11-23T23:56:07.480Z,95.02
2022-11-23T23:58:34.734Z,95.26
